Time;durP1;ratioP1;P1;durP2;ratioP2;P2;SDS_P1;SDS_P2;PMS_P1;PMS_P2;Temp;Humidity;BMP_temperature;BMP_pressure;BME280_temperature;BME280_humidity;BME280_pressure;Samples;Min_cycle;Max_cycle;Signal;HPM_P1;HPM_P2
2022/09/05 00:01:26;;;;;;;5.83;5.53;;;;;;;12.77;100.00;97615.78;5007618;28;20236;-62
2022/09/05 00:04:01;;;;;;;5.37;4.87;;;;;;;12.69;100.00;97611.41;5004149;28;20549;-59
2022/09/05 00:06:57;;;;;;;5.67;5.20;;;;;;;12.66;100.00;97609.91;4973166;28;20216;-62
2022/09/05 00:10:03;;;;;;;5.53;5.13;;;;;;;12.63;100.00;97612.94;5002601;28;20319;-59
2022/09/05 00:12:34;;;;;;;5.37;5.07;;;;;;;12.51;100.00;97596.69;4985804;28;20644;-59
2022/09/05 00:15:15;;;;;;;5.40;5.10;;;;;;;12.50;100.00;97612.81;5009283;28;20753;-57
2022/09/05 00:17:57;;;;;;;5.87;5.47;;;;;;;12.43;100.00;97613.56;5004041;28;20988;-55
2022/09/05 00:20:49;;;;;;;6.43;6.03;;;;;;;12.43;100.00;97610.91;4954690;28;20232;-60
2022/09/05 00:23:46;;;;;;;5.67;5.37;;;;;;;12.35;100.00;97610.16;4996326;28;20595;-59
2022/09/05 00:26:45;;;;;;;5.70;5.40;;;;;;;12.30;100.00;97614.19;4991511;28;20223;-60
2022/09/05 00:29:25;;;;;;;5.90;5.50;;;;;;;12.31;100.00;97615.00;5010680;28;20206;-57
2022/09/05 00:32:17;;;;;;;6.20;5.70;;;;;;;12.29;100.00;97612.56;5004238;28;20225;-61
2022/09/05 00:34:58;;;;;;;5.80;5.40;;;;;;;12.24;100.00;97617.59;5004478;28;20204;-60
2022/09/05 00:37:32;;;;;;;6.67;6.23;;;;;;;12.27;100.00;97619.88;4959681;28;20208;-60
2022/09/05 00:40:32;;;;;;;6.90;6.37;;;;;;;12.25;100.00;97621.06;5009471;28;20298;-59
2022/09/05 00:43:04;;;;;;;6.20;5.87;;;;;;;12.32;100.00;97618.50;4914921;28;20693;-59
2022/09/05 00:45:36;;;;;;;6.57;6.17;;;;;;;12.32;100.00;97621.16;4924689;28;20695;-60
2022/09/05 00:48:24;;;;;;;6.40;6.00;;;;;;;12.35;100.00;97623.44;4930697;28;20234;-60
2022/09/05 00:51:03;;;;;;;6.50;6.10;;;;;;;12.34;100.00;97619.97;4928156;28;20238;-62
2022/09/05 00:53:38;;;;;;;7.13;6.63;;;;;;;12.40;100.00;97613.94;4882054;28;20222;-58
2022/09/05 00:56:20;;;;;;;6.97;6.47;;;;;;;12.38;100.00;97617.75;4931005;28;20249;-56
2022/09/05 00:59:02;;;;;;;7.60;7.10;;;;;;;12.41;100.00;97612.06;4908914;28;20314;-59
2022/09/05 01:01:31;;;;;;;7.07;6.67;;;;;;;12.38;100.00;97612.44;4924221;28;20247;-58
2022/09/05 01:04:11;;;;;;;7.30;6.80;;;;;;;12.37;100.00;97616.13;4930072;28;20218;-60
2022/09/05 01:06:48;;;;;;;8.17;7.57;;;;;;;12.32;100.00;97611.38;4882672;28;21872;-56
2022/09/05 01:09:34;;;;;;;7.73;7.23;;;;;;;12.34;100.00;97613.81;4928151;28;21087;-56
2022/09/05 01:12:18;;;;;;;7.30;6.90;;;;;;;12.29;100.00;97611.72;4928436;28;20298;-60
2022/09/05 01:15:14;;;;;;;8.20;7.43;;;;;;;12.35;100.00;97618.13;4906827;28;20203;-55
2022/09/05 01:17:54;;;;;;;8.53;7.83;;;;;;;12.33;100.00;97615.69;4972855;28;20299;-59
2022/09/05 01:20:39;;;;;;;8.87;8.27;;;;;;;12.32;100.00;97615.84;5001894;28;20231;-57
2022/09/05 01:23:33;;;;;;;8.20;7.70;;;;;;;12.32;100.00;97611.38;4961810;28;20223;-61
2022/09/05 01:26:14;;;;;;;8.73;8.13;;;;;;;12.25;100.00;97605.97;4949175;28;22212;-54
2022/09/05 01:28:47;;;;;;;8.67;8.07;;;;;;;12.31;100.00;97612.34;4983463;28;20269;-62
2022/09/05 01:31:40;;;;;;;9.20;8.60;;;;;;;12.35;100.00;97618.97;4976714;28;20235;-57
2022/09/05 01:34:13;;;;;;;8.27;7.67;;;;;;;12.25;100.00;97618.41;4950723;28;20204;-55
2022/09/05 01:36:53;;;;;;;8.03;7.47;;;;;;;12.20;100.00;97624.28;5008377;28;20226;-59
2022/09/05 01:39:30;;;;;;;7.83;7.33;;;;;;;12.16;100.00;97621.16;5002264;28;20252;-58
2022/09/05 01:42:30;;;;;;;7.67;7.20;;;;;;;12.17;100.00;97614.03;4962362;28;20389;-58
2022/09/05 01:45:05;;;;;;;7.83;7.23;;;;;;;12.13;100.00;97616.22;5001800;28;20235;-59
2022/09/05 01:47:43;;;;;;;8.40;7.80;;;;;;;12.06;100.00;97620.63;5011199;28;20302;-59
2022/09/05 01:50:24;;;;;;;7.93;7.33;;;;;;;12.05;100.00;97626.94;4985705;28;20655;-58
2022/09/05 01:53:25;;;;;;;7.67;6.97;;;;;;;12.02;100.00;97629.97;4995532;28;20835;-60
2022/09/05 01:56:24;;;;;;;7.40;6.83;;;;;;;11.97;100.00;97640.28;5002688;28;20677;-55
2022/09/05 01:59:04;;;;;;;8.00;7.40;;;;;;;11.91;100.00;97635.66;4961793;28;20220;-56
2022/09/05 02:01:41;;;;;;;8.37;7.57;;;;;;;11.90;100.00;97647.28;5009147;28;20232;-61
2022/09/05 02:04:23;;;;;;;8.13;7.43;;;;;;;11.89;100.00;97649.16;4984199;28;20218;-60
2022/09/05 02:07:00;;;;;;;8.07;7.57;;;;;;;11.92;100.00;97654.09;5004599;28;20230;-60
2022/09/05 02:10:31;;;;;;;7.20;6.70;;;;;;;11.81;100.00;97651.88;5005217;28;20279;-55
2022/09/05 02:13:05;;;;;;;6.30;5.90;;;;;;;11.67;100.00;97637.56;4964259;28;20219;-59
2022/09/05 02:15:42;;;;;;;7.40;6.83;;;;;;;11.58;100.00;97642.97;5006965;28;20207;-59
2022/09/05 02:18:43;;;;;;;7.03;6.60;;;;;;;11.55;100.00;97632.69;5007328;28;20208;-58
2022/09/05 02:21:18;;;;;;;7.20;6.73;;;;;;;11.48;100.00;97633.59;4983898;28;20895;-58
2022/09/05 02:23:54;;;;;;;6.97;6.53;;;;;;;11.46;100.00;97631.09;4999660;28;20213;-60
2022/09/05 02:26:25;;;;;;;7.23;6.80;;;;;;;11.40;100.00;97634.47;4973904;28;20272;-59
2022/09/05 02:28:56;;;;;;;6.80;6.40;;;;;;;11.41;100.00;97630.81;4935609;28;20220;-56
2022/09/05 02:31:27;;;;;;;8.00;7.47;;;;;;;11.38;100.00;97633.81;5002897;28;20316;-57
2022/09/05 02:33:58;;;;;;;8.40;7.80;;;;;;;11.39;100.00;97631.00;5009143;28;20209;-58
2022/09/05 02:36:35;;;;;;;7.27;6.67;;;;;;;11.50;100.00;97634.22;4958574;28;20398;-59
2022/09/05 02:39:09;;;;;;;7.33;6.83;;;;;;;11.47;100.00;97638.06;5004777;28;20228;-61
2022/09/05 02:42:01;;;;;;;8.30;7.70;;;;;;;11.45;100.00;97632.09;5004361;28;20433;-59
2022/09/05 02:45:07;;;;;;;7.90;7.40;;;;;;;11.52;100.00;97630.38;5008799;28;20204;-60
2022/09/05 02:48:00;;;;;;;8.50;7.90;;;;;;;11.44;100.00;97638.41;5006290;28;20204;-61
2022/09/05 02:51:01;;;;;;;8.07;7.57;;;;;;;11.44;100.00;97630.44;4959369;28;20799;-62
2022/09/05 02:53:52;;;;;;;8.63;7.93;;;;;;;11.45;100.00;97645.38;5006829;28;20327;-56
2022/09/05 02:57:04;;;;;;;7.33;6.83;;;;;;;11.41;100.00;97644.06;5005864;28;20298;-62
2022/09/05 03:00:05;;;;;;;8.80;8.20;;;;;;;11.40;100.00;97647.72;4968634;28;20228;-60
2022/09/05 03:02:41;;;;;;;8.53;7.93;;;;;;;11.40;100.00;97645.91;5003645;28;20208;-61
2022/09/05 03:05:14;;;;;;;8.50;8.00;;;;;;;11.42;100.00;97641.25;5003980;28;20204;-60
2022/09/05 03:08:07;;;;;;;9.17;8.40;;;;;;;11.42;100.00;97643.91;4969077;28;20287;-60
2022/09/05 03:10:54;;;;;;;8.20;7.60;;;;;;;11.31;100.00;97644.31;5005466;28;21003;-58
2022/09/05 03:13:58;;;;;;;8.37;7.77;;;;;;;11.25;100.00;97635.25;4932896;28;20221;-60
2022/09/05 03:16:51;;;;;;;8.40;7.73;;;;;;;11.27;100.00;97637.72;4998551;28;20224;-54
2022/09/05 03:20:01;;;;;;;8.23;7.53;;;;;;;11.23;100.00;97629.31;5004380;28;20232;-60
2022/09/05 03:23:14;;;;;;;9.20;8.50;;;;;;;11.23;100.00;97631.13;4956956;28;20235;-59
2022/09/05 03:26:20;;;;;;;11.90;11.10;;;;;;;11.31;100.00;97633.69;4944465;28;20491;-57
2022/09/05 03:29:13;;;;;;;8.90;8.30;;;;;;;11.23;100.00;97626.66;4914094;28;20885;-55
2022/09/05 03:32:06;;;;;;;8.77;8.10;;;;;;;11.27;100.00;97635.91;4916359;28;20266;-55
2022/09/05 03:35:02;;;;;;;10.13;9.43;;;;;;;11.26;100.00;97631.59;4859490;28;20253;-60
2022/09/05 03:38:01;;;;;;;8.93;8.33;;;;;;;11.29;100.00;97633.91;4941578;28;20552;-58
2022/09/05 03:40:39;;;;;;;9.40;8.60;;;;;;;11.33;100.00;97628.22;4922721;28;20458;-58
2022/09/05 03:43:34;;;;;;;8.33;7.83;;;;;;;11.28;100.00;97634.06;4940973;28;20678;-60
2022/09/05 03:46:11;;;;;;;10.00;9.20;;;;;;;11.27;100.00;97627.09;4928774;28;20753;-59
2022/09/05 03:48:53;;;;;;;9.77;8.83;;;;;;;11.25;100.00;97637.06;4907394;28;20230;-59
2022/09/05 03:51:33;;;;;;;10.30;9.40;;;;;;;11.22;100.00;97635.59;4948155;28;20249;-58
2022/09/05 03:54:48;;;;;;;10.17;8.80;;;;;;;11.23;100.00;97639.06;4950149;28;20285;-59
2022/09/05 03:58:24;;;;;;;10.50;9.60;;;;;;;11.24;100.00;97640.72;4947614;28;20365;-59
2022/09/05 04:01:16;;;;;;;9.90;9.00;;;;;;;11.21;100.00;97641.06;4967860;28;20234;-58
2022/09/05 04:04:06;;;;;;;9.50;8.70;;;;;;;11.18;100.00;97647.56;4923412;28;21145;-60
2022/09/05 04:06:57;;;;;;;10.20;9.37;;;;;;;11.09;100.00;97648.59;4964541;28;21064;-59
2022/09/05 04:09:50;;;;;;;9.97;9.17;;;;;;;11.12;100.00;97642.94;4947747;28;20202;-56
2022/09/05 04:12:21;;;;;;;10.07;9.10;;;;;;;11.13;100.00;97639.28;4968173;28;20221;-56
2022/09/05 04:14:53;;;;;;;16.17;9.80;;;;;;;11.11;100.00;97644.78;4964999;28;20957;-59
2022/09/05 04:17:30;;;;;;;19.07;9.03;;;;;;;11.18;100.00;97646.72;4965014;28;20312;-54
2022/09/05 04:20:04;;;;;;;11.80;9.63;;;;;;;11.15;100.00;97646.09;4915891;28;20941;-58
2022/09/05 04:22:48;;;;;;;17.40;9.63;;;;;;;11.18;100.00;97650.22;4968029;28;20292;-59
2022/09/05 04:25:26;;;;;;;17.27;10.53;;;;;;;11.19;100.00;97643.91;4969906;28;20289;-58
2022/09/05 04:28:02;;;;;;;21.27;11.37;;;;;;;11.21;100.00;97647.22;4943506;28;20213;-59
2022/09/05 04:30:37;;;;;;;12.93;9.40;;;;;;;11.20;100.00;97653.53;4965647;28;20279;-60
2022/09/05 04:33:19;;;;;;;10.23;9.37;;;;;;;11.19;100.00;97651.88;4965333;28;20201;-58
2022/09/05 04:36:15;;;;;;;25.13;11.03;;;;;;;11.18;100.00;97655.53;4964272;28;20217;-60
2022/09/05 04:38:45;;;;;;;13.37;9.53;;;;;;;11.17;100.00;97655.69;5003214;28;20255;-56
2022/09/05 04:41:15;;;;;;;30.77;9.77;;;;;;;11.17;100.00;97653.03;4986039;28;20309;-55
2022/09/05 04:43:49;;;;;;;14.67;9.50;;;;;;;11.12;100.00;97653.56;5005539;28;20215;-58
2022/09/05 04:46:21;;;;;;;14.43;9.20;;;;;;;11.07;100.00;97659.41;5003923;28;20224;-60
2022/09/05 04:48:57;;;;;;;11.70;8.00;;;;;;;11.11;100.00;97662.50;5005350;28;20200;-61
2022/09/05 04:51:44;;;;;;;11.50;8.13;;;;;;;11.07;100.00;97666.53;4961565;28;20227;-57
2022/09/05 04:54:31;;;;;;;14.47;9.20;;;;;;;11.10;100.00;97658.22;5005573;28;20223;-56
2022/09/05 04:57:09;;;;;;;27.07;10.63;;;;;;;11.11;100.00;97654.56;4987522;28;20258;-60
2022/09/05 04:59:46;;;;;;;18.63;9.60;;;;;;;11.15;100.00;97655.84;5007821;28;20274;-60
2022/09/05 05:02:37;;;;;;;15.93;9.90;;;;;;;11.16;100.00;97652.19;5004140;28;20216;-58
2022/09/05 05:05:33;;;;;;;22.07;10.53;;;;;;;11.12;100.00;97649.09;5013280;28;20211;-61
2022/09/05 05:08:26;;;;;;;15.63;10.60;;;;;;;11.22;100.00;97656.81;4967792;28;20211;-55
2022/09/05 05:11:10;;;;;;;10.50;9.23;;;;;;;11.21;100.00;97663.13;5008753;28;20798;-60
2022/09/05 05:14:01;;;;;;;13.27;9.03;;;;;;;11.34;100.00;97653.75;4991988;28;20839;-58
2022/09/05 05:16:53;;;;;;;10.23;9.03;;;;;;;11.32;100.00;97661.88;5001771;28;20232;-61
2022/09/05 05:19:44;;;;;;;9.33;8.43;;;;;;;11.39;100.00;97662.00;5009052;28;20201;-60
2022/09/05 05:22:34;;;;;;;9.80;8.93;;;;;;;11.44;100.00;97662.28;4959959;28;21904;-57
2022/09/05 05:25:03;;;;;;;10.90;9.40;;;;;;;11.44;100.00;97662.28;5002152;28;20259;-62
2022/09/05 05:27:34;;;;;;;12.60;9.83;;;;;;;11.53;100.00;97663.88;5009253;28;20249;-59
2022/09/05 05:30:05;;;;;;;9.07;8.47;;;;;;;11.58;100.00;97660.69;5008286;28;21151;-56
2022/09/05 05:32:36;;;;;;;9.47;8.47;;;;;;;11.73;100.00;97653.59;5007602;28;20236;-60
2022/09/05 05:35:15;;;;;;;10.27;9.20;;;;;;;11.69;100.00;97654.94;5002122;28;20211;-58
2022/09/05 05:37:47;;;;;;;12.77;8.63;;;;;;;11.79;100.00;97651.25;4972077;28;20219;-59
2022/09/05 05:40:20;;;;;;;8.47;7.87;;;;;;;11.83;100.00;97652.53;4938924;28;21503;-63
2022/09/05 05:42:49;;;;;;;9.23;8.53;;;;;;;11.94;100.00;97654.72;4967714;28;20204;-59
2022/09/05 05:45:19;;;;;;;8.93;8.33;;;;;;;12.04;100.00;97658.97;5005778;28;20276;-61
2022/09/05 05:47:50;;;;;;;9.27;8.50;;;;;;;12.19;100.00;97664.31;4974231;28;20219;-61
2022/09/05 05:50:32;;;;;;;9.10;8.30;;;;;;;12.35;100.00;97666.81;5006819;28;20260;-58
2022/09/05 05:53:29;;;;;;;9.33;8.70;;;;;;;12.64;100.00;97669.63;5006749;28;20208;-57
2022/09/05 05:56:45;;;;;;;9.67;8.97;;;;;;;12.89;100.00;97672.78;4935464;28;21981;-58
2022/09/05 05:59:51;;;;;;;9.57;8.87;;;;;;;13.29;100.00;97675.88;4980929;28;20783;-59
2022/09/05 06:03:05;;;;;;;10.73;9.93;;;;;;;13.55;100.00;97679.00;4953596;28;20669;-60
2022/09/05 06:06:08;;;;;;;9.97;9.13;;;;;;;13.65;100.00;97678.69;4981313;28;20230;-61
2022/09/05 06:09:11;;;;;;;11.17;10.37;;;;;;;13.87;100.00;97690.97;4984327;28;20201;-60
2022/09/05 06:12:42;;;;;;;8.97;8.33;;;;;;;14.13;100.00;97688.72;4933993;28;21847;-59
2022/09/05 06:15:56;;;;;;;8.70;8.07;;;;;;;14.15;100.00;97684.00;4983909;28;20212;-56
2022/09/05 06:19:05;;;;;;;7.90;7.40;;;;;;;14.28;100.00;97684.06;4984611;28;20231;-60
2022/09/05 06:22:02;;;;;;;7.60;7.20;;;;;;;14.37;100.00;97674.09;4944411;28;20301;-60
2022/09/05 06:25:20;;;;;;;7.50;7.00;;;;;;;14.53;100.00;97682.78;4981747;28;20233;-58
2022/09/05 06:28:06;;;;;;;9.03;8.23;;;;;;;14.75;100.00;97675.53;4934917;28;20288;-61
2022/09/05 06:30:53;;;;;;;7.57;7.07;;;;;;;14.92;100.00;97669.88;4982618;28;20232;-59
2022/09/05 06:33:52;;;;;;;7.90;7.40;;;;;;;14.92;100.00;97670.66;5001865;28;20201;-61
2022/09/05 06:36:31;;;;;;;8.23;7.53;;;;;;;15.13;100.00;97664.38;5005585;28;20230;-61
2022/09/05 06:39:05;;;;;;;6.50;5.90;;;;;;;15.30;100.00;97664.81;5006914;28;20258;-60
2022/09/05 06:41:43;;;;;;;7.80;7.30;;;;;;;15.56;100.00;97654.41;5004320;28;20754;-59
2022/09/05 06:44:25;;;;;;;7.10;6.70;;;;;;;15.81;100.00;97651.94;4959706;28;20211;-60
2022/09/05 06:46:54;;;;;;;6.43;6.07;;;;;;;15.68;100.00;97659.94;4995537;28;20270;-60
2022/09/05 06:49:59;;;;;;;6.33;5.77;;;;;;;15.90;100.00;97660.56;5002238;28;20211;-61
2022/09/05 06:53:11;;;;;;;7.80;7.30;;;;;;;16.07;100.00;97660.97;5002858;28;20211;-61
2022/09/05 06:55:59;;;;;;;5.73;5.43;;;;;;;16.25;100.00;97673.69;5000589;28;20215;-60
2022/09/05 06:59:03;;;;;;;6.20;5.60;;;;;;;16.49;100.00;97668.72;5004173;28;20204;-61
2022/09/05 07:01:44;;;;;;;5.50;5.20;;;;;;;16.88;100.00;97674.94;5004367;28;20260;-59
2022/09/05 07:04:33;;;;;;;6.93;6.43;;;;;;;17.13;100.00;97674.25;5006051;28;20205;-60
2022/09/05 07:07:26;;;;;;;6.07;5.57;;;;;;;17.40;100.00;97670.59;5008442;28;20322;-57
2022/09/05 07:09:58;;;;;;;6.43;5.90;;;;;;;17.57;100.00;97666.34;5004181;28;20209;-55
2022/09/05 07:12:28;;;;;;;7.33;6.13;;;;;;;17.67;100.00;97671.22;5007813;28;20283;-60
2022/09/05 07:15:07;;;;;;;5.80;5.40;;;;;;;18.03;100.00;97668.91;4936939;28;21028;-61
2022/09/05 07:17:43;;;;;;;8.23;5.90;;;;;;;18.31;100.00;97672.97;5000910;28;20259;-61
2022/09/05 07:20:36;;;;;;;5.27;4.97;;;;;;;18.44;100.00;97672.84;4990562;28;20224;-63
2022/09/05 07:23:44;;;;;;;5.90;5.10;;;;;;;18.65;100.00;97674.25;5002035;28;20366;-61
2022/09/05 07:26:34;;;;;;;5.40;5.00;;;;;;;18.77;100.00;97685.06;5001563;28;20211;-60
2022/09/05 07:29:26;;;;;;;7.47;5.20;;;;;;;18.80;100.00;97684.63;5007416;28;20211;-58
2022/09/05 07:31:56;;;;;;;5.77;5.20;;;;;;;19.02;100.00;97681.47;4964696;28;20570;-59
2022/09/05 07:34:28;;;;;;;8.90;5.33;;;;;;;19.16;100.00;97689.38;5004226;28;20212;-60
2022/09/05 07:36:58;;;;;;;5.23;4.93;;;;;;;19.37;100.00;97683.47;4990535;28;20810;-59
2022/09/05 07:40:08;;;;;;;7.70;7.17;;;;;;;19.49;100.00;97688.91;5005620;28;20680;-62
2022/09/05 07:42:57;;;;;;;5.37;5.07;;;;;;;19.61;100.00;97685.41;5011652;28;20753;-62
2022/09/05 07:45:42;;;;;;;5.30;4.80;;;;;;;19.73;100.00;97690.81;5006685;28;20921;-62
2022/09/05 07:48:24;;;;;;;5.23;4.70;;;;;;;19.80;100.00;97683.47;4928962;28;20329;-61
2022/09/05 07:51:06;;;;;;;5.50;4.90;;;;;;;19.95;100.00;97681.19;5007144;28;20232;-61
2022/09/05 07:53:57;;;;;;;5.27;4.87;;;;;;;19.85;100.00;97683.59;5013758;28;20268;-61
2022/09/05 07:56:49;;;;;;;5.40;4.90;;;;;;;20.24;100.00;97684.00;4988494;28;20211;-61
2022/09/05 07:59:40;;;;;;;5.73;4.93;;;;;;;20.23;100.00;97682.34;5012238;28;20219;-59
2022/09/05 08:02:10;;;;;;;6.73;6.27;;;;;;;20.42;100.00;97678.72;5005696;28;20235;-61
2022/09/05 08:04:40;;;;;;;5.27;4.73;;;;;;;20.45;100.00;97689.84;4963990;28;20295;-56
2022/09/05 08:07:12;;;;;;;4.60;4.30;;;;;;;20.49;100.00;97679.44;5002513;28;20236;-61
2022/09/05 08:10:02;;;;;;;4.60;4.30;;;;;;;20.68;100.00;97680.91;5011411;28;20754;-59
2022/09/05 08:12:38;;;;;;;4.50;4.20;;;;;;;20.77;100.00;97672.44;4990954;28;20237;-58
2022/09/05 08:15:28;;;;;;;4.47;4.27;;;;;;;20.84;100.00;97675.88;5007676;28;20335;-57
2022/09/05 08:18:18;;;;;;;4.30;4.10;;;;;;;20.97;100.00;97672.06;4957920;28;20363;-61
2022/09/05 08:20:49;;;;;;;5.17;4.33;;;;;;;21.21;100.00;97674.69;5004609;28;20225;-60
2022/09/05 08:23:30;;;;;;;5.50;4.80;;;;;;;21.21;100.00;97672.00;5007377;28;21085;-60
2022/09/05 08:26:03;;;;;;;4.43;4.13;;;;;;;21.47;100.00;97667.88;5001074;28;20208;-58
2022/09/05 08:28:39;;;;;;;4.27;4.07;;;;;;;21.77;100.00;97674.06;5003109;28;20208;-59
2022/09/05 08:31:10;;;;;;;3.80;3.50;;;;;;;21.94;100.00;97674.06;5008233;28;20220;-59
2022/09/05 08:33:39;;;;;;;8.23;4.87;;;;;;;22.18;100.00;97666.63;4964646;28;20212;-53
2022/09/05 08:36:10;;;;;;;4.60;4.07;;;;;;;22.32;100.00;97671.66;5004110;28;20212;-60
2022/09/05 08:38:42;;;;;;;4.77;3.97;;;;;;;22.30;100.00;97666.50;5006051;28;22940;-58
2022/09/05 08:41:15;;;;;;;4.23;4.03;;;;;;;22.05;100.00;97666.94;5001915;28;21094;-59
2022/09/05 08:43:50;;;;;;;4.00;3.80;;;;;;;22.03;100.00;97664.50;4987175;28;20231;-58
2022/09/05 08:46:47;;;;;;;3.67;3.47;;;;;;;22.26;100.00;97665.34;5007029;28;20685;-55
2022/09/05 08:49:34;;;;;;;4.10;3.90;;;;;;;22.26;100.00;97659.97;4955596;28;20976;-58
2022/09/05 08:52:11;;;;;;;4.40;4.10;;;;;;;22.33;100.00;97662.50;5005395;28;20220;-58
2022/09/05 08:54:51;;;;;;;4.67;4.37;;;;;;;22.10;100.00;97646.25;5009544;28;20237;-55
2022/09/05 08:57:52;;;;;;;4.47;4.17;;;;;;;22.37;100.00;97647.44;4990563;28;20209;-57
2022/09/05 09:00:21;;;;;;;3.87;3.53;;;;;;;22.60;100.00;97643.72;5004830;28;20224;-55
2022/09/05 09:03:06;;;;;;;3.70;3.50;;;;;;;22.60;100.00;97643.72;5003276;28;20232;-59
2022/09/05 09:06:05;;;;;;;3.83;3.63;;;;;;;22.86;100.00;97645.91;4966813;28;20219;-57
2022/09/05 09:09:05;;;;;;;3.70;3.40;;;;;;;22.74;100.00;97627.94;4998270;28;20200;-59
2022/09/05 09:11:38;;;;;;;3.53;3.37;;;;;;;22.74;100.00;97640.66;5011880;28;20224;-58
2022/09/05 09:14:32;;;;;;;3.33;3.13;;;;;;;22.75;100.00;97637.69;4989137;28;20584;-57
2022/09/05 09:17:06;;;;;;;3.30;3.10;;;;;;;22.90;100.00;97638.91;5007770;28;20310;-57
2022/09/05 09:19:47;;;;;;;3.40;3.20;;;;;;;22.97;100.00;97637.66;5008238;28;20204;-54
2022/09/05 09:22:22;;;;;;;3.43;3.33;;;;;;;23.37;100.00;97632.13;4960906;28;21068;-60
2022/09/05 09:24:59;;;;;;;3.20;3.10;;;;;;;23.39;100.00;97622.72;5010994;28;20192;-63
2022/09/05 09:28:06;;;;;;;6.10;5.67;;;;;;;23.33;100.00;97623.72;5006901;28;20207;-60
2022/09/05 09:30:58;;;;;;;3.63;3.43;;;;;;;23.08;100.00;97630.47;5009450;28;20235;-61
2022/09/05 09:33:37;;;;;;;3.40;3.20;;;;;;;23.33;100.00;97626.44;5003590;28;20294;-57
2022/09/05 09:36:10;;;;;;;3.40;3.20;;;;;;;23.51;100.00;97629.81;4967832;28;20212;-60
2022/09/05 09:38:50;;;;;;;3.70;3.50;;;;;;;23.45;100.00;97625.44;5004883;28;20650;-60
2022/09/05 09:41:36;;;;;;;3.40;3.20;;;;;;;23.44;100.00;97626.53;5004469;28;20945;-58
2022/09/05 09:44:29;;;;;;;3.63;2.93;;;;;;;23.75;100.00;97624.88;4999484;28;20298;-61
2022/09/05 09:46:57;;;;;;;3.47;3.17;;;;;;;23.62;100.00;97623.41;5008555;28;20576;-58
2022/09/05 09:49:38;;;;;;;3.00;2.80;;;;;;;23.80;100.00;97616.78;5006679;28;20267;-60
2022/09/05 09:52:43;;;;;;;3.27;2.97;;;;;;;23.91;100.00;97614.97;4959111;28;20310;-61
2022/09/05 09:55:45;;;;;;;3.03;2.93;;;;;;;23.91;100.00;97628.50;4983803;28;20262;-60
2022/09/05 09:58:35;;;;;;;3.33;3.13;;;;;;;24.07;100.00;97628.66;4984431;28;20302;-57
2022/09/05 10:01:12;;;;;;;3.03;2.93;;;;;;;23.77;100.00;97613.81;5003152;28;20631;-60
2022/09/05 10:04:20;;;;;;;2.97;2.77;;;;;;;24.10;100.00;97612.69;4989720;28;20253;-59
2022/09/05 10:07:24;;;;;;;3.33;3.13;;;;;;;24.47;100.00;97602.88;5009733;28;20263;-55
2022/09/05 10:10:57;;;;;;;3.20;3.00;;;;;;;24.22;100.00;97609.78;4997286;28;20212;-59
2022/09/05 10:14:26;;;;;;;2.97;2.80;;;;;;;24.24;100.00;97617.63;5004914;28;20198;-55
2022/09/05 10:17:32;;;;;;;2.90;2.80;;;;;;;24.31;99.43;97610.13;5003350;28;20985;-57
2022/09/05 10:20:30;;;;;;;2.93;2.57;;;;;;;24.27;98.26;97607.09;4992619;28;20320;-54
2022/09/05 10:23:33;;;;;;;2.73;2.57;;;;;;;24.45;98.96;97609.63;5007936;28;20228;-56
2022/09/05 10:26:25;;;;;;;2.93;2.70;;;;;;;24.44;97.43;97603.41;5005503;28;20209;-57
2022/09/05 10:29:05;;;;;;;2.47;2.30;;;;;;;24.65;95.54;97611.59;4992399;28;20212;-60
2022/09/05 10:31:57;;;;;;;2.73;2.60;;;;;;;24.71;94.33;97611.38;4999606;28;20776;-58
2022/09/05 10:34:56;;;;;;;2.83;2.70;;;;;;;24.96;91.83;97619.84;4986178;28;22919;-59
2022/09/05 10:37:48;;;;;;;2.97;2.60;;;;;;;25.14;94.55;97607.69;5002538;28;20200;-56
2022/09/05 10:40:20;;;;;;;3.07;2.97;;;;;;;25.13;95.95;97600.66;5005149;28;20999;-56
2022/09/05 10:42:51;;;;;;;2.57;2.47;;;;;;;25.02;95.02;97605.22;4965408;28;20327;-53
2022/09/05 10:45:30;;;;;;;3.00;2.80;;;;;;;24.89;92.11;97594.91;5002154;28;20200;-59
2022/09/05 10:48:10;;;;;;;2.70;2.60;;;;;;;24.70;91.20;97595.34;5004754;28;20207;-59
2022/09/05 10:50:46;;;;;;;2.80;2.60;;;;;;;24.73;95.76;97588.59;4983639;28;20228;-56
2022/09/05 10:53:33;;;;;;;3.27;2.93;;;;;;;25.02;99.37;97590.88;5001379;28;20274;-58
2022/09/05 10:56:11;;;;;;;2.47;2.37;;;;;;;25.23;90.68;97578.97;5006933;28;20228;-55
2022/09/05 10:58:59;;;;;;;2.90;2.70;;;;;;;25.17;91.74;97582.75;4966203;28;20230;-55
2022/09/05 11:01:58;;;;;;;3.20;2.90;;;;;;;25.13;94.32;97571.63;5004978;28;20229;-59
2022/09/05 11:04:50;;;;;;;2.60;2.50;;;;;;;25.42;87.14;97571.09;5007544;28;20222;-59
2022/09/05 11:07:21;;;;;;;2.80;2.53;;;;;;;24.98;91.49;97572.41;4988855;28;20267;-59
2022/09/05 11:10:03;;;;;;;3.13;2.63;;;;;;;25.03;90.87;97563.50;5000872;28;20208;-60
2022/09/05 11:12:43;;;;;;;2.63;2.53;;;;;;;24.80;92.61;97556.69;4963996;28;21051;-56
2022/09/05 11:15:24;;;;;;;2.50;2.30;;;;;;;24.96;92.06;97554.81;5003317;28;20200;-57
2022/09/05 11:17:56;;;;;;;2.57;2.40;;;;;;;24.70;90.07;97554.72;5005608;28;20267;-55
2022/09/05 11:20:39;;;;;;;2.50;2.40;;;;;;;24.69;84.47;97543.09;5007326;28;20251;-57
2022/09/05 11:23:14;;;;;;;2.93;2.73;;;;;;;25.04;95.37;97557.00;4987783;28;20258;-55
2022/09/05 11:25:45;;;;;;;2.50;2.30;;;;;;;25.14;91.24;97548.84;5002131;28;20208;-57
2022/09/05 11:28:16;;;;;;;2.20;2.10;;;;;;;25.40;83.28;97546.16;4995902;28;20797;-58
2022/09/05 11:30:50;;;;;;;2.50;2.30;;;;;;;25.69;88.26;97539.38;4983706;28;21136;-55
2022/09/05 11:34:06;;;;;;;3.10;2.80;;;;;;;25.57;76.91;97542.38;5003491;28;20200;-57
2022/09/05 11:36:58;;;;;;;2.83;2.60;;;;;;;26.01;81.66;97549.06;4927206;29;20306;-58
2022/09/05 11:40:22;;;;;;;2.83;2.50;;;;;;;26.10;77.38;97541.97;4913209;28;21097;-56
2022/09/05 11:43:33;;;;;;;2.20;2.10;;;;;;;26.03;75.98;97524.38;4924985;28;20880;-55
2022/09/05 11:46:25;;;;;;;2.53;2.33;;;;;;;25.85;71.85;97524.69;4853968;29;20652;-59
2022/09/05 11:49:27;;;;;;;2.27;2.17;;;;;;;26.28;73.26;97528.94;4921899;28;20727;-56
2022/09/05 11:52:20;;;;;;;1.90;1.90;;;;;;;26.28;65.25;97531.66;4911402;29;20254;-58
2022/09/05 11:55:22;;;;;;;3.27;1.80;;;;;;;26.48;62.69;97529.91;4905239;28;20915;-56
2022/09/05 11:57:59;;;;;;;2.10;2.00;;;;;;;26.62;66.16;97522.78;4920782;28;20219;-61
2022/09/05 12:00:52;;;;;;;2.20;2.10;;;;;;;26.77;62.12;97527.31;4877743;28;20238;-59
2022/09/05 12:03:44;;;;;;;2.00;1.90;;;;;;;26.68;63.75;97521.66;4869985;28;20237;-59
2022/09/05 12:07:01;;;;;;;2.67;2.40;;;;;;;26.20;64.22;97522.16;4908255;28;20242;-58
2022/09/05 12:10:02;;;;;;;2.30;2.20;;;;;;;26.62;68.39;97513.81;4980059;28;21022;-57
2022/09/05 12:12:36;;;;;;;3.10;2.67;;;;;;;26.82;62.76;97512.88;4981887;28;20285;-58
2022/09/05 12:15:24;;;;;;;4.37;2.30;;;;;;;27.37;60.89;97515.47;5002187;28;20684;-52
2022/09/05 12:18:07;;;;;;;1.97;1.77;;;;;;;27.15;59.17;97518.63;5007952;28;20305;-56
2022/09/05 12:20:53;;;;;;;1.83;1.83;;;;;;;27.06;62.69;97506.75;4964802;28;20233;-59
2022/09/05 12:23:35;;;;;;;2.10;2.00;;;;;;;27.41;60.74;97507.53;5007724;28;20717;-59
2022/09/05 12:26:27;;;;;;;2.10;2.00;;;;;;;27.91;57.30;97499.19;4985480;28;20212;-56
2022/09/05 12:29:19;;;;;;;2.30;2.20;;;;;;;28.27;54.43;97495.22;5008238;28;20211;-59
2022/09/05 12:32:05;;;;;;;2.27;2.17;;;;;;;28.41;53.89;97508.94;5003045;28;20229;-55
2022/09/05 12:34:56;;;;;;;2.10;2.00;;;;;;;28.01;55.35;97500.94;4961610;28;26532;-54
2022/09/05 12:37:48;;;;;;;2.17;2.07;;;;;;;28.45;51.07;97509.97;5005603;28;20840;-53
2022/09/05 12:40:39;;;;;;;8.80;2.73;;;;;;;28.10;54.55;97499.22;5009804;28;20228;-56
2022/09/05 12:43:27;;;;;;;2.30;2.20;;;;;;;28.42;52.76;97503.22;4985160;28;20211;-57
2022/09/05 12:46:23;;;;;;;2.03;1.93;;;;;;;29.49;47.48;97495.59;5006787;28;20213;-59
2022/09/05 12:48:55;;;;;;;2.30;2.20;;;;;;;31.66;41.11;97486.50;5009419;28;20310;-56
2022/09/05 12:51:32;;;;;;;2.20;2.10;;;;;;;32.17;37.76;97487.81;4961900;28;20937;-58
2022/09/05 12:54:24;;;;;;;2.43;2.33;;;;;;;30.38;42.00;97487.34;5004823;28;20204;-55
2022/09/05 12:57:07;;;;;;;2.33;2.17;;;;;;;29.28;45.72;97486.94;4987505;28;20212;-55